createdAt,value
2023-05-05T00:02:06.513Z,16.67
2023-05-05T00:04:32.840Z,16.70
2023-05-05T00:06:59.164Z,16.75
2023-05-05T00:09:25.460Z,16.85
2023-05-05T00:11:51.764Z,16.84
2023-05-05T00:14:18.094Z,16.93
2023-05-05T00:16:44.451Z,16.99
2023-05-05T00:19:11.201Z,16.98
2023-05-05T00:21:37.542Z,17.04
2023-05-05T00:24:03.890Z,17.04
2023-05-05T00:26:30.242Z,17.03
2023-05-05T00:28:56.569Z,17.02
2023-05-05T00:31:22.893Z,17.02
2023-05-05T00:33:49.269Z,17.05
2023-05-05T00:36:15.601Z,17.07
2023-05-05T00:38:41.935Z,17.14
2023-05-05T00:41:08.238Z,17.15
2023-05-05T00:43:34.564Z,17.12
2023-05-05T00:46:00.915Z,17.25
2023-05-05T00:48:27.268Z,17.20
2023-05-05T00:50:53.588Z,17.25
2023-05-05T00:53:19.897Z,17.25
2023-05-05T00:55:46.209Z,17.21
2023-05-05T00:58:12.524Z,17.23
2023-05-05T01:00:38.838Z,17.21
2023-05-05T01:03:05.269Z,17.27
2023-05-05T01:05:31.670Z,17.25
2023-05-05T01:07:58.000Z,17.21
2023-05-05T01:10:24.543Z,17.17
2023-05-05T01:12:51.109Z,17.15
2023-05-05T01:15:17.464Z,17.12
2023-05-05T01:17:43.790Z,17.08
2023-05-05T01:20:10.299Z,17.19
2023-05-05T01:22:36.704Z,17.10
2023-05-05T01:25:03.024Z,17.04
2023-05-05T01:27:29.377Z,17.06
2023-05-05T01:29:55.694Z,17.11
2023-05-05T01:32:22.027Z,17.09
2023-05-05T01:34:48.345Z,17.11
2023-05-05T01:37:14.672Z,17.08
2023-05-05T01:39:41.003Z,17.02
2023-05-05T01:42:07.313Z,17.11
2023-05-05T01:44:33.647Z,17.09
2023-05-05T01:46:59.978Z,17.04
2023-05-05T01:49:26.299Z,16.96
2023-05-05T01:51:52.620Z,17.04
2023-05-05T01:54:18.940Z,17.07
2023-05-05T01:56:45.241Z,17.04
2023-05-05T01:59:11.570Z,16.98
2023-05-05T02:01:37.942Z,17.01
2023-05-05T02:04:04.302Z,16.97
2023-05-05T02:06:30.620Z,16.97
2023-05-05T02:08:56.944Z,16.99
2023-05-05T02:11:23.252Z,16.96
2023-05-05T02:13:49.582Z,16.85
2023-05-05T02:16:15.977Z,16.81
2023-05-05T02:18:42.312Z,16.72
2023-05-05T02:21:08.621Z,16.60
2023-05-05T02:23:34.956Z,16.52
2023-05-05T02:26:01.285Z,16.44
2023-05-05T02:28:27.592Z,16.46
2023-05-05T02:30:53.911Z,16.40
2023-05-05T02:33:20.231Z,16.30
2023-05-05T02:35:46.562Z,16.31
2023-05-05T02:38:12.879Z,16.36
2023-05-05T02:40:39.204Z,16.49
2023-05-05T02:43:05.571Z,16.56
2023-05-05T02:45:31.910Z,16.61
2023-05-05T02:47:58.266Z,16.59
2023-05-05T02:50:24.589Z,16.63
2023-05-05T02:52:50.912Z,16.58
2023-05-05T02:55:17.216Z,16.52
2023-05-05T02:57:43.534Z,16.48
2023-05-05T03:00:09.972Z,16.44
2023-05-05T03:02:36.492Z,16.42
2023-05-05T03:05:02.860Z,16.37
2023-05-05T03:07:29.222Z,16.36
2023-05-05T03:09:55.544Z,16.33
2023-05-05T03:12:21.868Z,16.35
2023-05-05T03:14:48.173Z,16.31
2023-05-05T03:17:14.500Z,16.27
2023-05-05T03:19:40.872Z,16.21
2023-05-05T03:22:07.219Z,16.13
2023-05-05T03:24:33.571Z,16.09
2023-05-05T03:26:59.902Z,16.07
2023-05-05T03:29:26.224Z,16.08
2023-05-05T03:31:52.576Z,16.01
2023-05-05T03:34:18.997Z,15.92
2023-05-05T03:36:45.338Z,15.85
2023-05-05T03:39:11.649Z,15.83
2023-05-05T03:41:37.958Z,15.79
2023-05-05T03:44:04.254Z,15.73
2023-05-05T03:46:30.550Z,15.76
2023-05-05T03:48:56.868Z,15.76
2023-05-05T03:51:23.181Z,15.77
2023-05-05T03:53:49.492Z,15.80
2023-05-05T03:56:15.790Z,15.72
2023-05-05T03:58:42.121Z,15.66
2023-05-05T04:01:08.433Z,15.63
2023-05-05T04:03:34.827Z,15.51
2023-05-05T04:06:01.180Z,15.53
2023-05-05T04:08:27.519Z,15.57
2023-05-05T04:10:53.847Z,15.64
2023-05-05T04:13:20.159Z,15.58
2023-05-05T04:15:46.524Z,15.54
2023-05-05T04:18:12.896Z,15.58
2023-05-05T04:20:39.209Z,15.64
2023-05-05T04:23:05.517Z,15.67
2023-05-05T04:25:31.840Z,15.66
2023-05-05T04:27:58.146Z,15.64
2023-05-05T04:30:24.464Z,15.69
2023-05-05T04:32:50.812Z,15.69
2023-05-05T04:35:17.126Z,15.80
2023-05-05T04:37:43.441Z,15.72
2023-05-05T04:40:09.841Z,15.75
2023-05-05T04:42:36.346Z,15.72
2023-05-05T04:45:02.659Z,15.82
2023-05-05T04:47:28.995Z,15.80
2023-05-05T04:49:55.340Z,15.80
2023-05-05T04:52:21.655Z,15.84
2023-05-05T04:54:47.980Z,15.84
2023-05-05T04:57:14.307Z,15.86
2023-05-05T04:59:40.621Z,15.84
2023-05-05T05:02:06.974Z,15.85
2023-05-05T05:04:33.313Z,15.82
2023-05-05T05:06:59.644Z,15.86
2023-05-05T05:09:25.991Z,15.85
2023-05-05T05:11:52.334Z,15.84
2023-05-05T05:14:18.647Z,15.88
2023-05-05T05:16:45.011Z,15.95
2023-05-05T05:19:11.385Z,15.94
2023-05-05T05:21:37.709Z,15.98
2023-05-05T05:24:04.027Z,16.00
2023-05-05T05:26:30.342Z,16.01
2023-05-05T05:28:56.649Z,16.05
2023-05-05T05:31:22.979Z,16.02
2023-05-05T05:33:49.308Z,16.01
2023-05-05T05:36:15.625Z,15.99
2023-05-05T05:38:41.957Z,16.15
2023-05-05T05:41:08.297Z,16.27
2023-05-05T05:43:34.630Z,16.13
2023-05-05T05:46:01.014Z,16.12
2023-05-05T05:48:27.362Z,16.15
2023-05-05T05:50:53.668Z,15.93
2023-05-05T05:53:20.004Z,15.95
2023-05-05T05:55:46.329Z,15.95
2023-05-05T05:58:12.634Z,15.98
2023-05-05T06:00:38.961Z,16.10
2023-05-05T06:03:05.390Z,16.00
2023-05-05T06:05:31.864Z,16.12
2023-05-05T06:07:58.203Z,16.16
2023-05-05T06:10:27.485Z,16.25
2023-05-05T06:12:54.593Z,16.29
2023-05-05T06:15:20.964Z,16.38
2023-05-05T06:17:47.292Z,16.65
2023-05-05T06:20:13.653Z,16.61
2023-05-05T06:22:39.998Z,16.77
2023-05-05T06:25:06.298Z,16.87
2023-05-05T06:27:32.624Z,16.89
2023-05-05T06:29:58.951Z,16.80
2023-05-05T06:32:25.276Z,16.81
2023-05-05T06:34:51.641Z,16.87
2023-05-05T06:37:17.983Z,17.02
2023-05-05T06:39:44.312Z,17.01
2023-05-05T06:42:10.624Z,17.09
2023-05-05T06:44:36.936Z,17.07
2023-05-05T06:47:03.303Z,17.09
2023-05-05T06:49:29.638Z,17.00
2023-05-05T06:51:55.957Z,17.24
2023-05-05T06:54:22.304Z,17.07
2023-05-05T06:56:48.634Z,17.01
2023-05-05T06:59:14.963Z,17.12
2023-05-05T07:01:41.269Z,17.31
2023-05-05T07:04:07.639Z,17.41
2023-05-05T07:06:34.016Z,17.47
2023-05-05T07:09:00.335Z,17.49
2023-05-05T07:11:26.656Z,17.59
2023-05-05T07:13:53.194Z,17.60
2023-05-05T07:16:19.578Z,17.51
2023-05-05T07:18:45.916Z,17.66
2023-05-05T07:21:12.249Z,17.70
2023-05-05T07:23:38.564Z,17.78
2023-05-05T07:26:04.890Z,17.67
2023-05-05T07:28:31.218Z,17.70
2023-05-05T07:30:57.527Z,17.93
2023-05-05T07:33:23.844Z,17.91
2023-05-05T07:35:50.172Z,17.95
2023-05-05T07:38:16.488Z,17.98
2023-05-05T07:40:42.795Z,17.82
2023-05-05T07:43:09.121Z,17.82
2023-05-05T07:45:35.433Z,17.90
2023-05-05T07:48:01.828Z,17.81
2023-05-05T07:50:28.155Z,17.92
2023-05-05T07:53:02.449Z,18.08
2023-05-05T07:55:36.812Z,18.03
2023-05-05T07:58:03.184Z,18.13
2023-05-05T08:00:29.509Z,18.22
2023-05-05T08:02:55.896Z,18.34
2023-05-05T08:05:22.381Z,18.36
2023-05-05T08:07:48.681Z,18.45
2023-05-05T08:10:15.005Z,18.49
2023-05-05T08:12:41.351Z,18.57
2023-05-05T08:15:08.015Z,18.70
2023-05-05T08:17:34.633Z,18.69
2023-05-05T08:20:00.981Z,18.72
2023-05-05T08:22:27.285Z,18.79
2023-05-05T08:24:53.590Z,18.79
2023-05-05T08:27:19.902Z,18.94
2023-05-05T08:29:46.236Z,18.97
2023-05-05T08:32:12.569Z,18.95
2023-05-05T08:34:38.875Z,18.93
2023-05-05T08:37:05.187Z,18.93
2023-05-05T08:39:31.513Z,18.88
2023-05-05T08:41:57.824Z,18.80
2023-05-05T08:44:24.156Z,18.80
2023-05-05T08:46:50.522Z,18.88
2023-05-05T08:49:16.952Z,18.92
2023-05-05T08:51:43.294Z,18.96
2023-05-05T08:54:09.618Z,19.17
2023-05-05T08:56:35.950Z,19.20
2023-05-05T08:59:02.278Z,19.26
2023-05-05T09:01:28.723Z,19.20
2023-05-05T09:03:55.084Z,19.27
2023-05-05T09:06:21.410Z,19.31
2023-05-05T09:08:47.744Z,19.49
2023-05-05T09:11:14.074Z,19.54
2023-05-05T09:13:40.406Z,19.39
2023-05-05T09:16:06.754Z,19.42
2023-05-05T09:18:33.085Z,19.53
2023-05-05T09:20:59.599Z,19.66
2023-05-05T09:23:26.016Z,19.66
2023-05-05T09:25:52.329Z,19.78
2023-05-05T09:28:18.696Z,19.88
2023-05-05T09:30:45.043Z,19.88
2023-05-05T09:33:11.510Z,19.99
2023-05-05T09:35:37.868Z,20.06
2023-05-05T09:38:04.177Z,20.22
2023-05-05T09:40:30.493Z,20.30
2023-05-05T09:42:56.820Z,20.29
2023-05-05T09:45:23.158Z,20.28
2023-05-05T09:47:49.547Z,20.47
2023-05-05T09:50:16.144Z,20.55
2023-05-05T09:52:42.659Z,20.60
2023-05-05T09:55:08.986Z,20.69
2023-05-05T09:57:35.314Z,20.63
2023-05-05T10:00:01.632Z,20.61
2023-05-05T10:02:27.962Z,20.52
2023-05-05T10:04:54.335Z,20.62
2023-05-05T10:07:20.657Z,20.70
2023-05-05T10:09:46.990Z,20.82
2023-05-05T10:12:13.321Z,20.87
2023-05-05T10:14:39.641Z,21.00
2023-05-05T10:17:05.954Z,21.13
2023-05-05T10:19:32.276Z,21.23
2023-05-05T10:21:58.591Z,21.19
2023-05-05T10:24:24.952Z,21.16
2023-05-05T10:26:51.286Z,21.11
2023-05-05T10:29:17.630Z,21.15
2023-05-05T10:31:43.986Z,21.19
2023-05-05T10:34:10.514Z,21.32
2023-05-05T10:36:36.925Z,21.23
2023-05-05T10:39:03.273Z,21.32
2023-05-05T10:41:29.645Z,21.52
2023-05-05T10:43:55.962Z,21.58
2023-05-05T10:46:22.319Z,21.70
2023-05-05T10:48:48.728Z,21.68
2023-05-05T10:51:23.871Z,21.63
2023-05-05T10:53:57.773Z,21.77
2023-05-05T10:56:24.102Z,21.73
2023-05-05T10:58:59.742Z,21.97
2023-05-05T11:01:26.773Z,22.20
2023-05-05T11:03:53.108Z,22.20
2023-05-05T11:06:19.499Z,22.22
2023-05-05T11:08:45.859Z,22.36
2023-05-05T11:11:12.176Z,22.54
2023-05-05T11:13:38.493Z,22.39
2023-05-05T11:16:04.900Z,22.48
2023-05-05T11:18:31.236Z,22.56
2023-05-05T11:20:57.538Z,22.44
2023-05-05T11:23:23.858Z,22.50
2023-05-05T11:25:50.170Z,22.51
2023-05-05T11:28:16.525Z,22.66
2023-05-05T11:30:42.863Z,22.89
2023-05-05T11:33:09.230Z,23.02
2023-05-05T11:35:35.647Z,23.20
2023-05-05T11:38:01.966Z,23.29
2023-05-05T11:40:28.385Z,23.51
2023-05-05T11:42:54.696Z,23.55
2023-05-05T11:45:21.023Z,23.65
2023-05-05T11:47:47.384Z,23.73
2023-05-05T11:50:13.698Z,23.79
2023-05-05T11:52:40.024Z,23.93
2023-05-05T11:55:06.349Z,24.09
2023-05-05T11:57:32.651Z,24.08
2023-05-05T11:59:58.955Z,24.11
2023-05-05T12:02:25.383Z,24.06
2023-05-05T12:04:51.800Z,24.00
2023-05-05T12:07:18.201Z,23.96
2023-05-05T12:09:44.561Z,23.96
2023-05-05T12:12:10.878Z,23.77
2023-05-05T12:14:37.203Z,23.82
2023-05-05T12:17:03.513Z,23.93
2023-05-05T12:19:29.822Z,23.83
2023-05-05T12:21:56.127Z,24.15
2023-05-05T12:24:22.453Z,24.32
2023-05-05T12:26:48.757Z,23.86
2023-05-05T12:29:15.076Z,23.94
2023-05-05T12:31:41.692Z,24.01
2023-05-05T12:34:08.106Z,23.49
2023-05-05T12:36:34.410Z,23.47
2023-05-05T12:39:00.762Z,23.34
2023-05-05T12:41:27.091Z,22.88
2023-05-05T12:43:53.404Z,22.85
2023-05-05T12:46:19.762Z,22.51
2023-05-05T12:48:48.277Z,22.58
2023-05-05T12:51:14.935Z,22.29
2023-05-05T12:53:41.259Z,22.01
2023-05-05T12:56:07.580Z,21.98
2023-05-05T12:58:33.882Z,21.89
2023-05-05T13:01:00.294Z,22.04
2023-05-05T13:03:26.830Z,22.00
2023-05-05T13:05:53.249Z,22.07
2023-05-05T13:08:19.573Z,21.89
2023-05-05T13:10:45.871Z,21.88
2023-05-05T13:13:12.291Z,21.96
2023-05-05T13:15:38.720Z,22.01
2023-05-05T13:18:05.109Z,22.13
2023-05-05T13:20:31.458Z,22.22
2023-05-05T13:22:57.763Z,22.24
2023-05-05T13:25:24.079Z,21.80
2023-05-05T13:27:50.408Z,21.94
2023-05-05T13:30:16.755Z,21.93
2023-05-05T13:32:43.089Z,21.66
2023-05-05T13:35:09.641Z,21.58
2023-05-05T13:37:36.163Z,21.81
2023-05-05T13:40:02.494Z,21.80
2023-05-05T13:42:28.797Z,21.72
2023-05-05T13:44:55.098Z,21.80
2023-05-05T13:47:21.475Z,21.90
2023-05-05T13:49:47.867Z,21.98
2023-05-05T13:52:14.185Z,22.23
2023-05-05T13:54:40.532Z,22.43
2023-05-05T13:57:06.877Z,22.65
2023-05-05T13:59:33.193Z,22.75
2023-05-05T14:01:59.502Z,22.83
2023-05-05T14:04:25.941Z,22.87
2023-05-05T14:06:52.311Z,22.97
2023-05-05T14:09:18.638Z,22.89
2023-05-05T14:11:44.983Z,23.00
2023-05-05T14:14:11.310Z,23.03
2023-05-05T14:16:37.667Z,23.19
2023-05-05T14:19:04.009Z,23.44
2023-05-05T14:21:30.390Z,23.44
2023-05-05T14:23:56.721Z,23.73
2023-05-05T14:26:23.071Z,23.91
2023-05-05T14:28:50.093Z,23.90
2023-05-05T14:31:16.522Z,23.89
2023-05-05T14:33:42.844Z,23.95
2023-05-05T14:36:09.185Z,23.98
2023-05-05T14:38:35.578Z,23.96
2023-05-05T14:41:01.974Z,24.01
2023-05-05T14:43:28.324Z,24.22
2023-05-05T14:45:54.670Z,24.43
2023-05-05T14:48:21.011Z,24.11
2023-05-05T14:50:47.325Z,23.86
2023-05-05T14:53:13.633Z,23.85
2023-05-05T14:55:39.939Z,23.84
2023-05-05T14:58:06.416Z,23.90
2023-05-05T15:00:32.737Z,23.73
2023-05-05T15:02:59.239Z,23.62
2023-05-05T15:05:25.626Z,23.51
2023-05-05T15:07:52.065Z,23.35
2023-05-05T15:10:19.745Z,23.30
2023-05-05T15:12:48.119Z,23.04
2023-05-05T15:15:14.483Z,22.87
2023-05-05T15:17:40.836Z,22.91
2023-05-05T15:20:07.151Z,22.86
2023-05-05T15:22:33.450Z,22.64
2023-05-05T15:24:59.778Z,22.70
2023-05-05T15:27:26.083Z,22.81
2023-05-05T15:29:52.395Z,22.63
2023-05-05T15:32:18.732Z,22.56
2023-05-05T15:34:45.072Z,22.46
2023-05-05T15:37:11.390Z,22.49
2023-05-05T15:39:37.728Z,22.47
2023-05-05T15:42:04.042Z,22.42
2023-05-05T15:44:30.361Z,22.39
2023-05-05T15:46:56.732Z,22.37
2023-05-05T15:49:23.105Z,22.35
2023-05-05T15:51:49.431Z,22.51
2023-05-05T15:54:15.784Z,22.71
2023-05-05T15:56:42.097Z,22.73
2023-05-05T15:59:08.421Z,22.80
2023-05-05T16:01:34.794Z,22.79
2023-05-05T16:04:01.219Z,22.41
2023-05-05T16:06:27.536Z,21.87
2023-05-05T16:08:53.861Z,21.53
2023-05-05T16:11:22.381Z,21.28
2023-05-05T16:13:48.828Z,20.85
2023-05-05T16:16:15.537Z,20.68
2023-05-05T16:18:41.937Z,20.65
2023-05-05T16:21:08.245Z,20.65
2023-05-05T16:23:34.545Z,20.27
2023-05-05T16:26:00.859Z,20.19
2023-05-05T16:28:27.177Z,20.31
2023-05-05T16:30:53.495Z,20.25
2023-05-05T16:33:19.819Z,20.21
2023-05-05T16:35:46.131Z,20.30
2023-05-05T16:38:12.438Z,20.28
2023-05-05T16:40:38.741Z,20.18
2023-05-05T16:43:05.063Z,20.14
2023-05-05T16:45:31.372Z,20.15
2023-05-05T16:47:57.732Z,20.28
2023-05-05T16:50:24.095Z,20.49
2023-05-05T16:52:50.426Z,20.64
2023-05-05T16:55:16.765Z,20.49
2023-05-05T16:57:43.121Z,20.41
2023-05-05T17:00:09.465Z,20.47
2023-05-05T17:02:35.822Z,20.39
2023-05-05T17:05:02.181Z,20.50
2023-05-05T17:07:28.519Z,20.64
2023-05-05T17:09:54.861Z,20.78
2023-05-05T17:12:21.167Z,20.93
2023-05-05T17:14:47.466Z,21.09
2023-05-05T17:17:13.781Z,21.28
2023-05-05T17:19:40.122Z,21.62
2023-05-05T17:22:06.445Z,21.87
2023-05-05T17:24:32.750Z,21.90
2023-05-05T17:26:59.064Z,22.07
2023-05-05T17:29:25.375Z,22.27
2023-05-05T17:31:51.751Z,22.26
2023-05-05T17:34:18.142Z,22.18
2023-05-05T17:36:44.472Z,22.20
2023-05-05T17:39:10.775Z,22.05
2023-05-05T17:41:37.084Z,21.96
2023-05-05T17:44:03.408Z,21.93
2023-05-05T17:46:29.794Z,22.01
2023-05-05T17:48:56.161Z,22.03
2023-05-05T17:51:22.517Z,21.90
2023-05-05T17:53:48.851Z,22.03
2023-05-05T17:56:15.221Z,21.93
2023-05-05T17:58:41.538Z,22.04
2023-05-05T18:01:07.937Z,21.88
2023-05-05T18:03:34.411Z,21.71
2023-05-05T18:06:00.856Z,21.49
2023-05-05T18:08:27.169Z,21.32
2023-05-05T18:10:53.474Z,21.21
2023-05-05T18:13:19.905Z,21.11
2023-05-05T18:15:46.483Z,21.06
2023-05-05T18:18:12.873Z,21.02
2023-05-05T18:20:39.287Z,20.89
2023-05-05T18:23:05.601Z,20.80
2023-05-05T18:25:31.946Z,20.83
2023-05-05T18:27:59.351Z,20.86
2023-05-05T18:30:25.688Z,20.74
2023-05-05T18:32:52.035Z,20.78
2023-05-05T18:35:18.390Z,20.58
2023-05-05T18:37:44.717Z,20.73
2023-05-05T18:40:11.039Z,20.67
2023-05-05T18:42:37.345Z,20.41
2023-05-05T18:45:03.681Z,20.38
2023-05-05T18:47:30.019Z,20.26
2023-05-05T18:49:56.361Z,20.07
2023-05-05T18:52:22.717Z,20.07
2023-05-05T18:54:49.040Z,19.97
2023-05-05T18:57:15.346Z,20.02
2023-05-05T18:59:41.666Z,19.83
2023-05-05T19:02:07.980Z,19.91
2023-05-05T19:04:34.321Z,19.83
2023-05-05T19:07:00.686Z,19.89
2023-05-05T19:09:27.029Z,20.01
2023-05-05T19:11:53.329Z,19.97
2023-05-05T19:14:19.646Z,20.09
2023-05-05T19:16:46.094Z,19.95
2023-05-05T19:19:12.441Z,19.80
2023-05-05T19:21:38.764Z,19.89
2023-05-05T19:24:05.064Z,19.74
2023-05-05T19:26:31.398Z,19.76
2023-05-05T19:28:57.723Z,19.61
2023-05-05T19:31:24.044Z,19.54
2023-05-05T19:33:50.404Z,19.63
2023-05-05T19:36:16.725Z,19.65
2023-05-05T19:38:43.024Z,19.58
2023-05-05T19:41:09.348Z,19.50
2023-05-05T19:43:35.658Z,19.43
2023-05-05T19:46:02.007Z,19.43
2023-05-05T19:48:28.348Z,19.43
2023-05-05T19:50:54.669Z,19.60
2023-05-05T19:53:20.979Z,19.44
2023-05-05T19:55:47.282Z,19.41
2023-05-05T19:58:13.620Z,19.45
2023-05-05T20:00:39.937Z,19.27
2023-05-05T20:03:06.279Z,19.38
2023-05-05T20:05:32.678Z,19.18
2023-05-05T20:07:59.000Z,19.05
2023-05-05T20:10:25.309Z,18.94
2023-05-05T20:12:51.688Z,18.81
2023-05-05T20:15:18.039Z,18.74
2023-05-05T20:17:44.376Z,18.76
2023-05-05T20:20:10.836Z,18.61
2023-05-05T20:22:38.697Z,18.51
2023-05-05T20:25:05.784Z,18.50
2023-05-05T20:27:32.986Z,18.49
2023-05-05T20:30:01.148Z,18.43
2023-05-05T20:32:27.491Z,18.11
2023-05-05T20:34:53.833Z,17.90
2023-05-05T20:37:20.183Z,17.65
2023-05-05T20:39:46.529Z,17.46
2023-05-05T20:42:12.833Z,17.36
2023-05-05T20:44:39.174Z,17.33
2023-05-05T20:47:05.521Z,17.31
2023-05-05T20:49:31.897Z,17.25
2023-05-05T20:51:58.298Z,17.23
2023-05-05T20:54:24.620Z,17.24
2023-05-05T20:56:50.940Z,17.30
2023-05-05T20:59:17.264Z,17.26
2023-05-05T21:01:43.616Z,17.27
2023-05-05T21:04:09.937Z,17.38
2023-05-05T21:06:36.237Z,17.47
2023-05-05T21:09:02.562Z,17.52
2023-05-05T21:11:28.877Z,17.52
2023-05-05T21:13:55.182Z,17.56
2023-05-05T21:16:21.532Z,17.58
2023-05-05T21:18:47.880Z,17.63
2023-05-05T21:21:14.181Z,17.60
2023-05-05T21:23:40.487Z,17.63
2023-05-05T21:26:06.856Z,17.69
2023-05-05T21:28:33.188Z,17.73
2023-05-05T21:31:20.548Z,17.79
2023-05-05T21:33:45.812Z,17.80
2023-05-05T21:36:12.133Z,17.84
2023-05-05T21:38:38.451Z,17.86
2023-05-05T21:41:04.824Z,17.87
2023-05-05T21:43:31.171Z,17.83
2023-05-05T21:45:57.553Z,17.91
2023-05-05T21:48:23.924Z,17.85
2023-05-05T21:50:50.273Z,17.82
2023-05-05T21:53:16.586Z,17.87
2023-05-05T21:55:42.887Z,17.94
2023-05-05T21:58:09.195Z,18.00
2023-05-05T22:00:35.509Z,18.02
2023-05-05T22:03:01.928Z,18.24
2023-05-05T22:05:28.297Z,18.21
2023-05-05T22:07:54.624Z,18.15
2023-05-05T22:10:20.933Z,18.04
2023-05-05T22:12:47.298Z,17.95
2023-05-05T22:15:13.622Z,17.74
2023-05-05T22:17:39.945Z,17.59
2023-05-05T22:20:06.486Z,17.49
2023-05-05T22:22:32.933Z,17.43
2023-05-05T22:24:59.269Z,17.36
2023-05-05T22:27:25.573Z,17.33
2023-05-05T22:29:51.994Z,17.37
2023-05-05T22:32:18.362Z,17.30
2023-05-05T22:34:44.673Z,17.23
2023-05-05T22:37:10.987Z,17.23
2023-05-05T22:39:37.322Z,17.20
2023-05-05T22:42:03.649Z,17.31
2023-05-05T22:44:29.986Z,17.27
2023-05-05T22:46:56.504Z,17.21
2023-05-05T22:49:22.917Z,17.16
2023-05-05T22:51:49.289Z,17.17
2023-05-05T22:54:15.591Z,17.05
2023-05-05T22:56:41.904Z,16.97
2023-05-05T22:59:08.254Z,16.91
2023-05-05T23:01:35.036Z,16.81
2023-05-05T23:04:01.347Z,16.69
2023-05-05T23:06:27.684Z,16.70
2023-05-05T23:08:53.997Z,16.60
2023-05-05T23:11:20.309Z,16.57
2023-05-05T23:13:46.617Z,16.54
2023-05-05T23:16:12.940Z,16.49
2023-05-05T23:18:39.265Z,16.55
2023-05-05T23:21:05.639Z,16.51
2023-05-05T23:23:31.967Z,16.49
2023-05-05T23:25:58.295Z,16.45
2023-05-05T23:28:24.612Z,16.38
2023-05-05T23:30:50.949Z,16.44
2023-05-05T23:33:17.308Z,16.42
2023-05-05T23:35:43.653Z,16.39
2023-05-05T23:38:09.955Z,16.41
2023-05-05T23:40:36.261Z,16.44
2023-05-05T23:43:02.579Z,16.41
2023-05-05T23:45:28.902Z,16.46
2023-05-05T23:47:55.236Z,16.41
2023-05-05T23:50:21.626Z,16.45
2023-05-05T23:52:47.933Z,16.29
2023-05-05T23:55:14.255Z,16.34
2023-05-05T23:57:40.586Z,16.29
